createdAt,value
2018-11-10T00:10:07.470Z,30.33
2018-11-10T00:12:35.860Z,31.27
2018-11-10T00:32:26.478Z,32.60
2018-11-10T00:34:54.951Z,31.73
2018-11-10T00:37:23.341Z,31.93
2018-11-10T00:39:52.186Z,30.97
2018-11-10T00:42:20.606Z,32.23
2018-11-10T00:44:48.996Z,32.00
2018-11-10T00:47:17.500Z,30.90
2018-11-10T00:49:45.880Z,30.70
2018-11-10T00:52:14.296Z,31.67
2018-11-10T00:54:43.067Z,30.80
2018-11-10T00:57:11.750Z,31.57
2018-11-10T00:59:40.213Z,31.43
2018-11-10T01:02:08.682Z,30.70
2018-11-10T01:04:37.049Z,30.80
2018-11-10T01:24:26.977Z,31.93
2018-11-10T01:26:55.394Z,33.90
2018-11-10T01:29:23.798Z,32.63
2018-11-10T01:49:13.130Z,34.07
2018-11-10T01:51:41.528Z,34.37
2018-11-10T01:54:09.912Z,34.70
2018-11-10T01:56:38.744Z,33.53
2018-11-10T01:59:07.349Z,34.70
2018-11-10T02:01:35.986Z,35.77
2018-11-10T02:21:25.994Z,35.07
2018-11-10T02:23:54.424Z,35.87
2018-11-10T02:26:22.824Z,37.17
2018-11-10T02:46:11.413Z,38.03
2018-11-10T02:48:39.789Z,38.23
2018-11-10T02:51:08.153Z,37.70
2018-11-10T03:10:57.926Z,36.83
2018-11-10T03:13:26.286Z,36.20
2018-11-10T03:15:54.681Z,35.87
2018-11-10T03:35:43.658Z,34.10
2018-11-10T03:38:12.062Z,33.77
2018-11-10T03:40:40.429Z,32.60
2018-11-10T03:43:08.865Z,34.97
2018-11-10T03:45:37.342Z,32.33
2018-11-10T03:48:05.955Z,32.77
2018-11-10T03:50:34.662Z,33.30
2018-11-10T04:10:24.813Z,28.93
2018-11-10T04:12:53.237Z,29.73
2018-11-10T04:15:21.635Z,28.57
2018-11-10T04:17:50.034Z,29.33
2018-11-10T04:20:18.521Z,28.00
2018-11-10T04:22:46.896Z,28.80
2018-11-10T04:25:15.280Z,27.53
2018-11-10T04:45:06.409Z,25.87
2018-11-10T04:47:34.796Z,26.97
2018-11-10T05:07:24.381Z,24.43
2018-11-10T05:27:14.268Z,24.97
2018-11-10T05:29:42.665Z,23.30
2018-11-10T05:32:11.430Z,22.47
2018-11-10T05:52:02.180Z,23.50
2018-11-10T05:54:30.565Z,21.97
2018-11-10T05:56:59.033Z,23.57
2018-11-10T05:59:27.773Z,23.13
2018-11-10T06:01:56.187Z,22.90
2018-11-10T06:04:24.601Z,23.00
2018-11-10T06:06:53.300Z,22.70
2018-11-10T06:26:41.753Z,22.23
2018-11-10T06:29:10.193Z,22.03
2018-11-10T06:31:38.593Z,22.00
2018-11-10T06:34:07.053Z,22.77
2018-11-10T06:36:35.489Z,22.33
2018-11-10T06:39:04.901Z,22.10
2018-11-10T06:41:33.415Z,22.27
2018-11-10T07:01:23.088Z,21.50
2018-11-10T07:03:51.465Z,22.30
2018-11-10T07:06:19.857Z,22.00
2018-11-10T07:08:48.535Z,20.97
2018-11-10T07:11:16.916Z,21.53
2018-11-10T07:13:45.280Z,21.70
2018-11-10T07:16:13.973Z,21.63
2018-11-10T07:18:42.463Z,22.13
2018-11-10T07:21:10.861Z,21.30
2018-11-10T07:23:39.453Z,22.40
2018-11-10T07:26:07.828Z,21.93
2018-11-10T07:28:36.676Z,20.33
2018-11-10T07:31:05.595Z,21.87
2018-11-10T07:33:34.321Z,22.17
2018-11-10T07:36:02.828Z,20.70
2018-11-10T07:38:31.480Z,22.30
2018-11-10T07:58:20.562Z,20.30
2018-11-10T08:00:49.150Z,19.93
2018-11-10T08:20:38.879Z,21.00
2018-11-10T08:23:07.584Z,20.17
2018-11-10T08:25:35.998Z,19.97
2018-11-10T08:28:04.413Z,21.50
2018-11-10T08:30:32.861Z,21.87
2018-11-10T08:33:01.303Z,22.93
2018-11-10T08:35:29.701Z,22.50
2018-11-10T08:37:58.201Z,22.40
2018-11-10T08:40:26.658Z,21.83
2018-11-10T08:42:55.047Z,22.30
2018-11-10T08:45:23.549Z,21.17
2018-11-10T08:47:51.990Z,23.57
2018-11-10T08:50:20.431Z,21.07
2018-11-10T08:52:48.847Z,20.03
2018-11-10T08:55:17.581Z,21.77
2018-11-10T08:57:46.011Z,21.60
2018-11-10T09:00:15.089Z,20.50
2018-11-10T09:02:43.496Z,22.03
2018-11-10T09:05:12.446Z,20.93
2018-11-10T09:25:02.770Z,22.10
2018-11-10T09:44:51.577Z,20.13
2018-11-10T10:04:41.304Z,17.27
2018-11-10T10:07:09.692Z,17.07
2018-11-10T10:09:38.116Z,16.63
2018-11-10T10:12:06.869Z,15.73
2018-11-10T10:14:35.306Z,16.33
2018-11-10T10:17:03.713Z,15.97
2018-11-10T10:19:32.263Z,15.90
2018-11-10T10:22:00.699Z,15.93
2018-11-10T10:24:29.177Z,16.70
2018-11-10T10:44:18.805Z,15.67
2018-11-10T10:46:47.214Z,15.57
2018-11-10T10:49:15.692Z,16.00
2018-11-10T10:51:44.368Z,15.33
2018-11-10T10:54:12.797Z,16.30
2018-11-10T10:56:41.187Z,16.23
2018-11-10T11:16:30.059Z,16.70
2018-11-10T11:18:58.435Z,17.30
2018-11-10T11:38:48.982Z,19.97
2018-11-10T11:41:17.719Z,19.63
2018-11-10T12:01:06.233Z,19.80
2018-11-10T12:03:34.649Z,19.27
2018-11-10T12:23:24.796Z,20.23
2018-11-10T12:43:14.960Z,19.00
2018-11-10T12:45:43.508Z,19.10
2018-11-10T12:48:12.134Z,19.03
2018-11-10T12:50:40.534Z,20.00
2018-11-10T13:10:36.837Z,18.30
2018-11-10T13:13:06.014Z,18.07
2018-11-10T13:15:34.409Z,18.67
2018-11-10T13:18:02.998Z,18.50
2018-11-10T13:20:31.411Z,19.10
2018-11-10T13:22:59.796Z,18.33
2018-11-10T13:25:28.216Z,18.23
2018-11-10T13:27:56.615Z,17.23
2018-11-10T13:47:46.017Z,18.60
2018-11-10T13:50:14.448Z,19.47
2018-11-10T13:52:43.501Z,18.57
2018-11-10T13:55:12.531Z,18.43
2018-11-10T13:57:41.887Z,18.13
2018-11-10T14:00:13.525Z,18.40
2018-11-10T14:02:42.282Z,18.33
2018-11-10T14:05:11.282Z,18.20
2018-11-10T14:07:40.075Z,20.27
2018-11-10T14:10:10.581Z,18.50
2018-11-10T14:12:40.568Z,20.30
2018-11-10T14:15:09.791Z,19.50
2018-11-10T14:17:38.416Z,20.23
2018-11-10T14:20:09.641Z,19.97
2018-11-10T14:22:38.051Z,19.53
2018-11-10T14:25:08.626Z,18.93
2018-11-10T14:27:37.803Z,20.13
2018-11-10T14:30:08.328Z,21.80
2018-11-10T14:32:37.649Z,20.47
2018-11-10T14:35:07.121Z,20.90
2018-11-10T14:37:35.518Z,20.63
2018-11-10T14:40:05.238Z,20.77
2018-11-10T14:42:33.914Z,20.87
2018-11-10T14:45:02.363Z,20.27
2018-11-10T14:47:30.829Z,20.43
2018-11-10T14:50:05.262Z,20.53
2018-11-10T14:52:33.778Z,20.43
2018-11-10T14:55:02.163Z,20.17
2018-11-10T14:57:30.562Z,20.67
2018-11-10T15:17:18.920Z,20.90
2018-11-10T15:19:47.833Z,20.27
2018-11-10T15:39:38.490Z,24.97
2018-11-10T15:59:27.312Z,23.83
2018-11-10T16:01:55.881Z,22.47
2018-11-10T16:04:24.297Z,22.50
2018-11-10T16:06:52.680Z,22.47
2018-11-10T16:09:21.264Z,24.07
2018-11-10T16:11:49.637Z,21.80
2018-11-10T16:14:18.013Z,22.60
2018-11-10T16:16:46.789Z,22.73
2018-11-10T16:19:15.208Z,22.83
2018-11-10T16:39:06.025Z,19.93
2018-11-10T16:41:34.610Z,20.83
2018-11-10T16:44:03.095Z,22.03
2018-11-10T16:46:31.717Z,21.70
2018-11-10T17:06:19.432Z,21.40
2018-11-10T17:08:47.973Z,22.27
2018-11-10T17:11:16.353Z,22.90
2018-11-10T17:31:05.648Z,21.60
2018-11-10T17:33:34.074Z,23.83
2018-11-10T17:53:22.813Z,25.83
2018-11-10T17:55:51.248Z,24.47
2018-11-10T17:58:19.633Z,26.03
2018-11-10T18:00:48.118Z,23.57
2018-11-10T18:03:16.601Z,24.00
2018-11-10T18:23:05.665Z,24.63
2018-11-10T18:25:34.053Z,24.20
2018-11-10T18:28:02.448Z,24.97
2018-11-10T18:30:30.910Z,25.73
2018-11-10T18:50:20.660Z,22.33
2018-11-10T19:10:11.750Z,21.37
2018-11-10T19:12:40.653Z,21.90
2018-11-10T19:15:11.663Z,20.57
2018-11-10T19:17:40.097Z,22.33
2018-11-10T19:20:09.214Z,21.60
2018-11-10T19:22:37.775Z,22.97
2018-11-10T19:25:07.797Z,21.77
2018-11-10T19:27:36.251Z,21.80
2018-11-10T19:30:05.809Z,21.40
2018-11-10T19:32:34.222Z,23.23
2018-11-10T19:35:03.646Z,22.83
2018-11-10T19:37:32.105Z,23.20
2018-11-10T19:40:00.759Z,23.23
2018-11-10T19:42:29.146Z,23.67
2018-11-10T19:44:57.561Z,23.80
2018-11-10T19:47:26.010Z,23.73
2018-11-10T19:49:54.449Z,23.17
2018-11-10T19:52:22.854Z,22.57
2018-11-10T19:54:51.381Z,22.63
2018-11-10T19:57:19.789Z,23.50
2018-11-10T19:59:48.243Z,23.77
2018-11-10T20:02:16.625Z,22.93
2018-11-10T20:04:45.205Z,24.00
2018-11-10T20:07:13.623Z,24.10
2018-11-10T20:09:42.765Z,24.97
2018-11-10T20:29:31.024Z,23.90
2018-11-10T20:49:19.959Z,25.17
2018-11-10T20:51:48.405Z,25.23
2018-11-10T21:11:37.800Z,25.90
2018-11-10T21:14:06.964Z,25.27
2018-11-10T21:16:35.573Z,25.37
2018-11-10T21:19:03.980Z,25.40
2018-11-10T21:21:32.714Z,25.03
2018-11-10T21:41:21.081Z,25.63
2018-11-10T21:43:49.578Z,25.43
2018-11-10T21:46:17.923Z,25.13
2018-11-10T22:06:06.753Z,24.13
2018-11-10T22:08:35.197Z,24.43
2018-11-10T22:11:03.581Z,25.17
2018-11-10T22:13:32.232Z,25.33
2018-11-10T22:16:00.665Z,26.60
2018-11-10T22:18:29.042Z,24.60
2018-11-10T22:20:57.506Z,24.53
2018-11-10T22:23:25.879Z,25.93
2018-11-10T22:25:54.289Z,24.50
2018-11-10T22:28:22.696Z,24.67
2018-11-10T22:30:51.108Z,25.00
2018-11-10T22:33:19.502Z,25.27
2018-11-10T22:35:48.061Z,24.60
2018-11-10T22:38:16.446Z,23.93
2018-11-10T22:58:06.165Z,24.33
2018-11-10T23:00:34.661Z,24.17
2018-11-10T23:03:03.087Z,23.33
2018-11-10T23:05:31.858Z,23.60
2018-11-10T23:25:22.092Z,24.33
2018-11-10T23:27:50.741Z,22.73
2018-11-10T23:47:40.976Z,23.10
2018-11-10T23:50:12.381Z,23.67
2018-11-10T23:52:40.889Z,22.63
2018-11-10T23:55:10.688Z,22.60
2018-11-10T23:57:39.389Z,23.37
